X  Sluiten METAR luchtvaart weer gegevens      EHKD De Kooy Airport
Temperatuur
11°C Temperatuur
9°C Dauwpunt
88% Vochtigheid



Wind
29 KM/U
18 MPH
8 M/S
16 KTS



170°
Z
Huidig weer

Wat bewolking Wat bewolking
Luchtdruk 983.07 (hPa) - 29.03 (inHg)
Zicht 6 (mijl) - 9.7 (km)
Vliegveld
Vliegveld code EHKD

Locatie : De Kooy Airport
Afstand: 34 (km)

Metar:
EHKD 221207Z AUTO 17016KT 140V200 9999 FEW013 SCT016 BKN096 11/09 Q0983 WHT TEMPO SCT007

Tijd: 22-02-2024 13:07 CET